createdAt,value
2019-02-02T00:03:39.537Z,9.53
2019-02-02T00:07:43.469Z,8.00
2019-02-02T00:11:47.418Z,21.50
2019-02-02T00:15:51.538Z,20.73
2019-02-02T00:19:55.912Z,14.93
2019-02-02T00:24:00.166Z,11.13
2019-02-02T00:28:04.030Z,22.87
2019-02-02T00:32:07.944Z,13.87
2019-02-02T00:36:11.854Z,6.00
2019-02-02T00:40:15.736Z,5.37
2019-02-02T00:44:22.110Z,4.30
2019-02-02T00:48:26.016Z,3.80
2019-02-02T00:52:30.938Z,4.00
2019-02-02T00:56:34.896Z,4.13
2019-02-02T01:00:39.116Z,3.73
2019-02-02T01:04:43.057Z,3.60
2019-02-02T01:08:46.936Z,2.97
2019-02-02T01:12:50.867Z,3.97
2019-02-02T01:16:54.705Z,3.30
2019-02-02T01:20:58.516Z,3.30
2019-02-02T01:25:02.417Z,2.97
2019-02-02T01:29:06.331Z,3.73
2019-02-02T01:33:10.157Z,3.73
2019-02-02T01:37:14.176Z,3.23
2019-02-02T01:41:17.967Z,3.27
2019-02-02T01:45:22.427Z,3.90
2019-02-02T01:49:26.201Z,2.87
2019-02-02T01:53:30.294Z,2.80
2019-02-02T01:57:34.098Z,3.53
2019-02-02T02:01:41.566Z,3.17
2019-02-02T02:05:44.759Z,3.20
2019-02-02T02:09:48.597Z,3.30
2019-02-02T02:13:52.498Z,2.60
2019-02-02T02:17:56.439Z,2.77
2019-02-02T02:22:00.344Z,2.53
2019-02-02T02:26:05.014Z,1.97
2019-02-02T02:30:10.031Z,2.43
2019-02-02T02:34:13.964Z,2.27
2019-02-02T02:38:17.845Z,2.60
2019-02-02T02:42:21.643Z,2.50
2019-02-02T02:46:25.554Z,2.33
2019-02-02T02:50:29.435Z,2.40
2019-02-02T02:54:33.222Z,2.60
2019-02-02T02:58:41.625Z,1.97
2019-02-02T03:02:42.866Z,1.60
2019-02-02T03:06:46.899Z,1.50
2019-02-02T03:10:50.830Z,1.33
2019-02-02T03:14:54.662Z,1.60
2019-02-02T03:18:58.435Z,1.37
2019-02-02T03:23:02.375Z,1.47
2019-02-02T03:27:06.376Z,1.57
2019-02-02T03:31:10.368Z,1.50
2019-02-02T03:35:14.995Z,1.60
2019-02-02T03:39:18.981Z,1.53
2019-02-02T03:43:22.769Z,1.50
2019-02-02T03:47:26.723Z,1.60
2019-02-02T03:51:30.654Z,1.50
2019-02-02T03:55:34.689Z,1.70
2019-02-02T04:04:15.050Z,1.80
2019-02-02T04:08:19.957Z,1.93
2019-02-02T04:12:24.043Z,2.00
2019-02-02T04:16:27.889Z,2.20
2019-02-02T04:20:31.752Z,2.07
2019-02-02T04:24:35.635Z,2.17
2019-02-02T04:28:39.533Z,2.30
2019-02-02T04:32:43.430Z,3.07
2019-02-02T04:36:48.381Z,3.37
2019-02-02T04:40:52.253Z,3.23
2019-02-02T04:44:56.333Z,2.90
2019-02-02T04:49:00.167Z,3.30
2019-02-02T04:53:04.049Z,2.40
2019-02-02T04:57:07.988Z,2.13
2019-02-02T05:01:11.913Z,1.83
2019-02-02T05:05:15.902Z,2.40
2019-02-02T05:09:19.884Z,2.27
2019-02-02T05:13:23.802Z,2.13
2019-02-02T05:17:27.881Z,1.90
2019-02-02T05:21:31.683Z,2.23
2019-02-02T05:25:35.719Z,2.43
2019-02-02T05:29:41.481Z,2.70
2019-02-02T05:33:45.239Z,2.63
2019-02-02T05:37:49.197Z,3.00
2019-02-02T05:41:53.352Z,2.77
2019-02-02T05:45:57.303Z,3.27
2019-02-02T05:50:01.254Z,4.07
2019-02-02T05:54:05.203Z,3.70
2019-02-02T05:58:09.129Z,3.50
2019-02-02T06:02:13.013Z,3.53
2019-02-02T06:06:16.949Z,3.30
2019-02-02T06:10:21.198Z,3.90
2019-02-02T06:14:24.985Z,3.43
2019-02-02T06:18:28.879Z,3.10
2019-02-02T06:22:32.784Z,3.83
2019-02-02T06:26:36.732Z,3.77
2019-02-02T06:30:40.683Z,3.53
2019-02-02T06:34:44.596Z,3.90
2019-02-02T06:38:48.627Z,3.77
2019-02-02T06:42:52.547Z,4.37
2019-02-02T06:46:56.456Z,6.60
2019-02-02T06:51:00.468Z,5.10
2019-02-02T06:55:04.723Z,4.87
2019-02-02T06:59:08.817Z,4.27
2019-02-02T07:03:13.280Z,4.00
2019-02-02T07:07:17.486Z,4.73
2019-02-02T07:11:21.491Z,4.70
2019-02-02T07:15:26.332Z,4.63
2019-02-02T07:19:30.237Z,4.10
2019-02-02T07:23:34.186Z,4.30
2019-02-02T07:27:38.088Z,5.00
2019-02-02T07:31:42.055Z,4.17
2019-02-02T07:35:46.082Z,3.97
2019-02-02T07:39:50.133Z,6.07
2019-02-02T07:43:53.987Z,5.23
2019-02-02T07:47:57.913Z,4.33
2019-02-02T07:52:01.898Z,4.33
2019-02-02T07:56:05.839Z,4.27
2019-02-02T08:00:12.515Z,4.27
2019-02-02T08:04:16.448Z,3.90
2019-02-02T08:08:20.336Z,4.03
2019-02-02T08:12:24.184Z,4.30
2019-02-02T08:16:28.279Z,4.47
2019-02-02T08:20:32.218Z,4.67
2019-02-02T08:24:38.595Z,4.90
2019-02-02T08:28:41.790Z,4.83
2019-02-02T08:32:45.753Z,5.03
2019-02-02T08:36:49.742Z,6.17
2019-02-02T08:40:53.662Z,5.93
2019-02-02T08:44:59.938Z,4.83
2019-02-02T08:49:04.055Z,5.87
2019-02-02T08:53:08.018Z,8.17
2019-02-02T08:57:12.000Z,7.77
2019-02-02T09:01:16.204Z,5.73
2019-02-02T09:05:20.311Z,4.37
2019-02-02T09:09:25.315Z,4.70
2019-02-02T09:13:31.775Z,6.10
2019-02-02T09:17:35.681Z,5.30
2019-02-02T09:21:39.803Z,5.67
2019-02-02T09:25:43.563Z,5.03
2019-02-02T09:29:47.952Z,6.00
2019-02-02T09:33:52.023Z,6.30
2019-02-02T09:37:55.944Z,5.70
2019-02-02T09:41:59.973Z,6.93
2019-02-02T09:46:04.741Z,6.60
2019-02-02T09:50:10.081Z,6.13
2019-02-02T09:54:26.057Z,5.43
2019-02-02T09:58:21.528Z,6.43
2019-02-02T10:02:27.158Z,5.90
2019-02-02T10:06:32.597Z,4.57
2019-02-02T10:10:37.501Z,4.90
2019-02-02T10:14:41.371Z,5.97
2019-02-02T10:18:45.188Z,5.30
2019-02-02T10:22:49.142Z,6.77
2019-02-02T10:26:53.120Z,6.27
2019-02-02T10:30:58.538Z,6.23
2019-02-02T10:35:02.466Z,8.03
2019-02-02T10:39:07.537Z,7.63
2019-02-02T10:43:11.453Z,7.17
2019-02-02T10:47:16.246Z,7.00
2019-02-02T10:51:20.214Z,6.87
2019-02-02T10:55:24.038Z,7.57
2019-02-02T10:59:27.909Z,6.00
2019-02-02T11:03:32.817Z,5.57
2019-02-02T11:07:36.923Z,4.93
2019-02-02T11:11:40.953Z,5.77
2019-02-02T11:15:46.092Z,5.60
2019-02-02T11:19:50.163Z,4.87
2019-02-02T11:23:54.075Z,5.20
2019-02-02T11:27:58.052Z,5.97
2019-02-02T11:32:03.149Z,5.27
2019-02-02T11:36:07.235Z,5.80
2019-02-02T11:40:13.496Z,4.33
2019-02-02T11:44:20.150Z,4.43
2019-02-02T11:48:24.182Z,3.67
2019-02-02T11:52:28.118Z,4.70
2019-02-02T11:56:31.937Z,4.23
2019-02-02T12:00:37.140Z,4.70
2019-02-02T12:04:41.261Z,4.40
2019-02-02T12:08:45.327Z,4.60
2019-02-02T12:12:49.366Z,4.40
2019-02-02T12:16:53.314Z,4.53
2019-02-02T12:20:57.131Z,4.10
2019-02-02T12:25:01.895Z,4.63
2019-02-02T12:29:06.180Z,4.43
2019-02-02T12:33:10.110Z,3.70
2019-02-02T12:37:14.037Z,4.63
2019-02-02T12:41:17.837Z,4.00
2019-02-02T12:45:23.221Z,4.87
2019-02-02T12:49:27.174Z,5.33
2019-02-02T12:53:31.016Z,5.97
2019-02-02T12:57:36.257Z,4.90
2019-02-02T13:01:40.191Z,5.27
2019-02-02T13:05:44.078Z,4.03
2019-02-02T13:09:51.569Z,4.47
2019-02-02T13:13:55.457Z,5.37
2019-02-02T13:17:59.412Z,5.87
2019-02-02T13:22:03.234Z,6.20
2019-02-02T13:26:07.173Z,5.63
2019-02-02T13:30:12.542Z,4.97
2019-02-02T13:34:16.461Z,7.57
2019-02-02T13:38:20.367Z,5.23
2019-02-02T13:42:24.340Z,13.00
2019-02-02T13:46:28.234Z,8.40
2019-02-02T13:50:32.061Z,5.77
2019-02-02T13:54:35.987Z,45.67
2019-02-02T13:58:39.994Z,30.57
2019-02-02T14:02:43.939Z,18.93
2019-02-02T14:06:48.037Z,10.77
2019-02-02T14:10:51.942Z,7.67
2019-02-02T14:14:55.805Z,5.40
2019-02-02T14:18:59.749Z,7.30
2019-02-02T14:23:03.519Z,6.63
2019-02-02T14:27:07.336Z,4.60
2019-02-02T14:31:11.269Z,4.77
2019-02-02T14:35:15.575Z,4.23
2019-02-02T14:39:19.758Z,4.03
2019-02-02T14:43:23.569Z,5.83
2019-02-02T14:47:27.608Z,5.70
2019-02-02T14:51:31.412Z,4.47
2019-02-02T14:55:36.510Z,5.57
2019-02-02T14:59:40.380Z,5.17
2019-02-02T15:03:44.427Z,5.47
2019-02-02T15:07:48.441Z,6.47
2019-02-02T15:11:52.338Z,4.27
2019-02-02T15:15:56.168Z,3.97
2019-02-02T15:20:00.185Z,3.40
2019-02-02T15:24:05.880Z,3.33
2019-02-02T15:28:09.872Z,3.10
2019-02-02T15:32:13.743Z,3.47
2019-02-02T15:36:17.693Z,3.83
2019-02-02T15:40:21.725Z,3.87
2019-02-02T15:44:25.722Z,3.20
2019-02-02T15:48:30.731Z,2.93
2019-02-02T15:52:34.933Z,2.73
2019-02-02T15:56:39.015Z,2.50
2019-02-02T16:00:43.080Z,2.67
2019-02-02T16:04:46.999Z,2.97
2019-02-02T16:08:51.019Z,2.40
2019-02-02T16:12:54.841Z,3.13
2019-02-02T16:16:59.801Z,3.17
2019-02-02T16:21:03.710Z,3.27
2019-02-02T16:25:09.446Z,3.53
2019-02-02T16:29:13.461Z,4.07
2019-02-02T16:33:17.342Z,3.77
2019-02-02T16:37:21.261Z,4.20
2019-02-02T16:41:25.084Z,4.73
2019-02-02T16:45:29.531Z,4.10
2019-02-02T16:49:33.362Z,4.10
2019-02-02T16:53:38.511Z,3.33
2019-02-02T16:57:42.399Z,4.17
2019-02-02T17:01:46.363Z,3.30
2019-02-02T17:05:50.312Z,3.50
2019-02-02T17:09:54.263Z,3.03
2019-02-02T17:13:58.096Z,4.00
2019-02-02T17:18:01.982Z,3.50
2019-02-02T17:22:06.075Z,3.63
2019-02-02T17:26:10.033Z,3.77
2019-02-02T17:30:15.125Z,3.40
2019-02-02T17:34:26.834Z,3.60
2019-02-02T17:38:24.684Z,3.73
2019-02-02T17:42:28.733Z,4.27
2019-02-02T17:46:32.568Z,5.30
2019-02-02T17:50:36.554Z,4.47
2019-02-02T17:54:40.359Z,4.80
2019-02-02T17:58:44.279Z,4.43
2019-02-02T18:02:48.232Z,3.40
2019-02-02T18:06:52.304Z,3.97
2019-02-02T18:10:56.553Z,3.70
2019-02-02T18:15:00.373Z,4.30
2019-02-02T18:19:04.390Z,4.03
2019-02-02T18:23:08.236Z,4.90
2019-02-02T18:27:12.107Z,4.87
2019-02-02T18:31:16.088Z,4.83
2019-02-02T18:35:20.070Z,4.13
2019-02-02T18:39:24.018Z,4.53
2019-02-02T18:43:28.053Z,4.00
2019-02-02T18:47:32.076Z,4.77
2019-02-02T18:51:35.994Z,5.00
2019-02-02T18:55:41.204Z,4.90
2019-02-02T18:59:45.241Z,4.87
2019-02-02T19:03:49.092Z,4.70
2019-02-02T19:07:53.126Z,4.93
2019-02-02T19:11:57.056Z,4.13
2019-02-02T19:16:00.919Z,4.40
2019-02-02T19:20:05.370Z,4.47
2019-02-02T19:24:10.498Z,4.87
2019-02-02T19:28:14.380Z,4.20
2019-02-02T19:32:18.270Z,4.20
2019-02-02T19:36:22.150Z,4.30
2019-02-02T19:40:26.187Z,5.20
2019-02-02T19:44:30.049Z,5.03
2019-02-02T19:48:34.026Z,3.73
2019-02-02T19:52:40.488Z,4.07
2019-02-02T19:56:44.641Z,3.40
2019-02-02T20:00:48.756Z,3.70
2019-02-02T20:04:52.646Z,3.77
2019-02-02T20:08:56.947Z,4.60
2019-02-02T20:13:00.885Z,4.90
2019-02-02T20:17:04.803Z,4.50
2019-02-02T20:21:08.723Z,4.47
2019-02-02T20:25:12.705Z,5.00
2019-02-02T20:29:16.695Z,5.73
2019-02-02T20:33:20.734Z,4.57
2019-02-02T20:37:24.753Z,6.07
2019-02-02T20:41:31.288Z,4.73
2019-02-02T20:45:35.479Z,4.70
2019-02-02T20:49:39.401Z,5.13
2019-02-02T20:53:44.395Z,4.07
2019-02-02T20:57:48.270Z,4.30
2019-02-02T21:01:52.170Z,4.50
2019-02-02T21:05:56.247Z,5.13
2019-02-02T21:10:00.343Z,4.83
2019-02-02T21:14:05.256Z,5.67
2019-02-02T21:18:11.835Z,4.90
2019-02-02T21:22:14.817Z,4.60
2019-02-02T21:26:18.610Z,4.50
2019-02-02T21:30:24.774Z,5.00
2019-02-02T21:34:28.772Z,5.00
2019-02-02T21:38:32.929Z,4.83
2019-02-02T21:42:37.223Z,6.10
2019-02-02T21:46:41.200Z,5.73
2019-02-02T21:50:44.998Z,5.97
2019-02-02T21:54:49.316Z,5.97
2019-02-02T21:58:53.236Z,6.00
2019-02-02T22:02:57.122Z,5.90
2019-02-02T22:07:01.132Z,4.40
2019-02-02T22:11:05.353Z,5.77
2019-02-02T22:15:11.121Z,5.97
2019-02-02T22:19:14.957Z,5.30
2019-02-02T22:23:18.857Z,5.80
2019-02-02T22:27:22.788Z,5.43
2019-02-02T22:31:26.772Z,5.80
2019-02-02T22:35:30.806Z,6.70
2019-02-02T22:39:34.998Z,6.00
2019-02-02T22:43:39.341Z,6.27
2019-02-02T22:47:43.404Z,6.67
2019-02-02T22:51:47.300Z,6.73
2019-02-02T22:55:51.209Z,6.47
2019-02-02T22:59:55.046Z,6.30
2019-02-02T23:04:03.570Z,7.00
2019-02-02T23:08:14.334Z,5.83
2019-02-02T23:12:21.998Z,5.87
2019-02-02T23:16:27.732Z,6.20
2019-02-02T23:20:31.688Z,6.33
2019-02-02T23:24:35.626Z,7.10
2019-02-02T23:28:39.668Z,6.63
2019-02-02T23:32:43.618Z,5.43
2019-02-02T23:36:52.350Z,6.07
2019-02-02T23:40:53.267Z,6.43
2019-02-02T23:44:57.263Z,5.93
2019-02-02T23:49:02.493Z,5.53
2019-02-02T23:53:06.334Z,7.00
2019-02-02T23:57:10.250Z,6.70
